createdAt,value
2018-06-03T00:00:59.193Z,100.0
2018-06-03T00:01:59.933Z,100.0
2018-06-03T00:03:00.663Z,100.0
2018-06-03T00:04:01.400Z,100.0
2018-06-03T00:05:02.114Z,100.0
2018-06-03T00:06:02.957Z,100.0
2018-06-03T00:07:03.677Z,100.0
2018-06-03T00:08:04.408Z,100.0
2018-06-03T00:09:05.173Z,100.0
2018-06-03T00:10:05.932Z,100.0
2018-06-03T00:11:06.653Z,100.0
2018-06-03T00:12:07.381Z,100.0
2018-06-03T00:13:08.097Z,100.0
2018-06-03T00:14:08.846Z,100.0
2018-06-03T00:15:09.554Z,100.0
2018-06-03T00:16:10.285Z,100.0
2018-06-03T00:17:11.358Z,100.0
2018-06-03T00:18:12.336Z,100.0
2018-06-03T00:19:13.055Z,100.0
2018-06-03T00:20:13.787Z,100.0
2018-06-03T00:21:14.509Z,100.0
2018-06-03T00:22:15.294Z,100.0
2018-06-03T00:23:15.983Z,100.0
2018-06-03T00:24:16.699Z,100.0
2018-06-03T00:25:17.423Z,100.0
2018-06-03T00:26:18.249Z,100.0
2018-06-03T00:27:18.984Z,100.0
2018-06-03T00:28:19.708Z,100.0
2018-06-03T00:29:20.434Z,100.0
2018-06-03T00:30:21.151Z,100.0
2018-06-03T00:31:22.128Z,100.0
2018-06-03T00:32:22.865Z,100.0
2018-06-03T00:33:23.587Z,100.0
2018-06-03T00:34:24.306Z,100.0
2018-06-03T00:35:25.025Z,100.0
2018-06-03T00:36:25.744Z,100.0
2018-06-03T00:37:26.472Z,100.0
2018-06-03T00:38:27.205Z,100.0
2018-06-03T00:39:27.920Z,100.0
2018-06-03T00:40:28.715Z,100.0
2018-06-03T00:41:29.384Z,100.0
2018-06-03T00:42:30.093Z,100.0
2018-06-03T00:43:30.854Z,100.0
2018-06-03T00:44:31.745Z,100.0
2018-06-03T00:45:32.731Z,100.0
2018-06-03T00:46:33.458Z,100.0
2018-06-03T00:47:34.174Z,100.0
2018-06-03T00:48:34.906Z,100.0
2018-06-03T00:49:35.627Z,100.0
2018-06-03T00:50:36.346Z,100.0
2018-06-03T00:51:37.073Z,100.0
2018-06-03T00:52:37.798Z,100.0
2018-06-03T00:53:38.544Z,100.0
2018-06-03T00:54:39.251Z,100.0
2018-06-03T00:55:39.985Z,100.0
2018-06-03T00:56:40.714Z,100.0
2018-06-03T00:57:41.451Z,100.0
2018-06-03T00:58:42.193Z,100.0
2018-06-03T00:59:42.922Z,100.0
2018-06-03T01:00:43.644Z,100.0
2018-06-03T01:01:44.375Z,100.0
2018-06-03T01:02:45.103Z,100.0
2018-06-03T01:03:45.845Z,100.0
2018-06-03T01:04:46.561Z,100.0
2018-06-03T01:05:47.286Z,100.0
2018-06-03T01:06:48.013Z,100.0
2018-06-03T01:07:48.739Z,100.0
2018-06-03T01:08:49.465Z,100.0
2018-06-03T01:09:50.195Z,100.0
2018-06-03T01:10:50.931Z,100.0
2018-06-03T01:11:51.646Z,100.0
2018-06-03T01:12:52.375Z,100.0
2018-06-03T01:13:53.109Z,100.0
2018-06-03T01:14:53.846Z,100.0
2018-06-03T01:15:54.574Z,100.0
2018-06-03T01:16:55.299Z,100.0
2018-06-03T01:17:56.028Z,100.0
2018-06-03T01:18:56.754Z,100.0
2018-06-03T01:19:57.483Z,100.0
2018-06-03T01:20:58.264Z,100.0
2018-06-03T01:21:58.995Z,100.0
2018-06-03T01:22:59.969Z,100.0
2018-06-03T01:24:00.700Z,100.0
2018-06-03T01:25:01.429Z,100.0
2018-06-03T01:26:02.556Z,100.0
2018-06-03T01:27:03.286Z,100.0
2018-06-03T01:28:04.007Z,100.0
2018-06-03T01:29:04.734Z,100.0
2018-06-03T01:30:05.460Z,100.0
2018-06-03T01:31:06.242Z,100.0
2018-06-03T01:32:06.961Z,100.0
2018-06-03T01:33:07.683Z,100.0
2018-06-03T01:34:08.412Z,100.0
2018-06-03T01:35:09.128Z,100.0
2018-06-03T01:36:09.856Z,100.0
2018-06-03T01:37:10.582Z,100.0
2018-06-03T01:38:11.299Z,100.0
2018-06-03T01:39:12.029Z,100.0
2018-06-03T01:40:12.751Z,100.0
2018-06-03T01:41:13.480Z,100.0
2018-06-03T01:42:14.461Z,100.0
2018-06-03T01:43:15.348Z,100.0
2018-06-03T01:44:16.067Z,100.0
2018-06-03T01:45:17.042Z,100.0
2018-06-03T01:46:17.759Z,100.0
2018-06-03T01:47:18.736Z,100.0
2018-06-03T01:48:19.468Z,100.0
2018-06-03T01:49:20.543Z,100.0
2018-06-03T01:50:21.260Z,100.0
2018-06-03T01:51:21.988Z,100.0
2018-06-03T01:52:22.967Z,100.0
2018-06-03T01:53:23.693Z,100.0
2018-06-03T01:54:24.422Z,100.0
2018-06-03T01:55:25.294Z,100.0
2018-06-03T01:56:26.028Z,100.0
2018-06-03T01:57:26.758Z,100.0
2018-06-03T01:58:27.479Z,100.0
2018-06-03T01:59:28.212Z,100.0
2018-06-03T02:00:28.943Z,100.0
2018-06-03T02:01:29.671Z,100.0
2018-06-03T02:02:30.399Z,100.0
2018-06-03T02:03:31.124Z,100.0
2018-06-03T02:04:31.850Z,100.0
2018-06-03T02:05:32.619Z,100.0
2018-06-03T02:06:33.353Z,100.0
2018-06-03T02:07:34.077Z,100.0
2018-06-03T02:08:34.802Z,100.0
2018-06-03T02:09:35.525Z,100.0
2018-06-03T02:10:36.248Z,100.0
2018-06-03T02:11:37.224Z,100.0
2018-06-03T02:12:37.951Z,100.0
2018-06-03T02:13:38.677Z,100.0
2018-06-03T02:14:39.421Z,100.0
2018-06-03T02:15:40.149Z,100.0
2018-06-03T02:16:40.881Z,100.0
2018-06-03T02:17:41.600Z,100.0
2018-06-03T02:18:42.390Z,100.0
2018-06-03T02:19:43.113Z,100.0
2018-06-03T02:20:43.849Z,100.0
2018-06-03T02:21:44.573Z,100.0
2018-06-03T02:22:45.306Z,100.0
2018-06-03T02:23:46.082Z,100.0
2018-06-03T02:24:46.813Z,100.0
2018-06-03T02:25:47.528Z,100.0
2018-06-03T02:26:48.267Z,100.0
2018-06-03T02:27:49.001Z,100.0
2018-06-03T02:28:49.809Z,100.0
2018-06-03T02:29:50.526Z,100.0
2018-06-03T02:30:51.269Z,100.0
2018-06-03T02:31:51.997Z,100.0
2018-06-03T02:32:52.724Z,100.0
2018-06-03T02:33:53.513Z,100.0
2018-06-03T02:34:54.235Z,100.0
2018-06-03T02:35:54.968Z,100.0
2018-06-03T02:36:55.682Z,100.0
2018-06-03T02:37:56.416Z,100.0
2018-06-03T02:38:57.159Z,100.0
2018-06-03T02:39:57.883Z,100.0
2018-06-03T02:40:58.618Z,100.0
2018-06-03T02:41:59.600Z,100.0
2018-06-03T02:43:00.328Z,100.0
2018-06-03T02:44:01.108Z,100.0
2018-06-03T02:45:01.840Z,100.0
2018-06-03T02:46:02.566Z,100.0
2018-06-03T02:47:03.300Z,100.0
2018-06-03T02:48:04.018Z,100.0
2018-06-03T02:49:04.838Z,100.0
2018-06-03T02:50:05.577Z,100.0
2018-06-03T02:51:06.298Z,100.0
2018-06-03T02:52:07.030Z,100.0
2018-06-03T02:53:07.756Z,100.0
2018-06-03T02:54:08.833Z,100.0
2018-06-03T02:55:09.557Z,100.0
2018-06-03T02:56:10.282Z,100.0
2018-06-03T02:57:11.003Z,100.0
2018-06-03T02:58:11.723Z,100.0
2018-06-03T02:59:12.670Z,100.0
2018-06-03T03:00:13.342Z,100.0
2018-06-03T03:01:14.077Z,100.0
2018-06-03T03:02:14.797Z,100.0
2018-06-03T03:03:15.521Z,100.0
2018-06-03T03:04:16.246Z,100.0
2018-06-03T03:05:16.980Z,100.0
2018-06-03T03:06:17.709Z,100.0
2018-06-03T03:07:18.442Z,100.0
2018-06-03T03:08:19.174Z,100.0
2018-06-03T03:09:20.148Z,100.0
2018-06-03T03:10:20.878Z,100.0
2018-06-03T03:11:21.608Z,100.0
2018-06-03T03:12:22.320Z,100.0
2018-06-03T03:13:23.048Z,100.0
2018-06-03T03:14:23.880Z,100.0
2018-06-03T03:15:24.606Z,100.0
2018-06-03T03:16:25.581Z,100.0
2018-06-03T03:17:26.309Z,100.0
2018-06-03T03:18:27.034Z,100.0
2018-06-03T03:19:27.752Z,100.0
2018-06-03T03:20:28.482Z,100.0
2018-06-03T03:21:29.204Z,100.0
2018-06-03T03:22:29.935Z,100.0
2018-06-03T03:23:30.653Z,100.0
2018-06-03T03:24:31.381Z,100.0
2018-06-03T03:25:32.109Z,100.0
2018-06-03T03:26:32.926Z,100.0
2018-06-03T03:27:33.646Z,100.0
2018-06-03T03:28:34.378Z,100.0
2018-06-03T03:29:35.106Z,100.0
2018-06-03T03:30:36.084Z,100.0
2018-06-03T03:31:36.821Z,100.0
2018-06-03T03:32:37.543Z,100.0
2018-06-03T03:33:38.272Z,100.0
2018-06-03T03:34:39.004Z,100.0
2018-06-03T03:35:39.981Z,100.0
2018-06-03T03:36:40.699Z,100.0
2018-06-03T03:37:41.427Z,100.0
2018-06-03T03:38:42.151Z,100.0
2018-06-03T03:39:43.126Z,100.0
2018-06-03T03:40:43.857Z,100.0
2018-06-03T03:41:44.591Z,100.0
2018-06-03T03:42:45.318Z,100.0
2018-06-03T03:43:46.042Z,100.0
2018-06-03T03:44:46.779Z,100.0
2018-06-03T03:45:47.506Z,100.0
2018-06-03T03:46:48.229Z,100.0
2018-06-03T03:47:48.983Z,100.0
2018-06-03T03:48:50.092Z,100.0
2018-06-03T03:49:50.821Z,100.0
2018-06-03T03:50:51.550Z,100.0
2018-06-03T03:51:52.273Z,100.0
2018-06-03T03:52:53.005Z,100.0
2018-06-03T03:53:53.834Z,100.0
2018-06-03T03:54:54.557Z,100.0
2018-06-03T03:55:55.282Z,100.0
2018-06-03T03:56:56.263Z,100.0
2018-06-03T03:57:56.993Z,100.0
2018-06-03T03:58:57.724Z,100.0
2018-06-03T03:59:58.447Z,100.0
2018-06-03T04:00:59.177Z,100.0
2018-06-03T04:01:59.910Z,100.0
2018-06-03T04:03:00.644Z,100.0
2018-06-03T04:04:01.623Z,100.0
2018-06-03T04:05:02.362Z,100.0
2018-06-03T04:06:03.456Z,100.0
2018-06-03T04:07:04.192Z,100.0
2018-06-03T04:08:04.925Z,100.0
2018-06-03T04:09:05.656Z,100.0
2018-06-03T04:10:06.396Z,100.0
2018-06-03T04:11:07.129Z,100.0
2018-06-03T04:12:07.861Z,100.0
2018-06-03T04:13:08.615Z,100.0
2018-06-03T04:14:09.334Z,100.0
2018-06-03T04:15:10.054Z,100.0
2018-06-03T04:16:10.798Z,100.0
2018-06-03T04:17:11.529Z,100.0
2018-06-03T04:18:12.509Z,100.0
2018-06-03T04:19:13.603Z,100.0
2018-06-03T04:20:14.585Z,100.0
2018-06-03T04:21:15.320Z,100.0
2018-06-03T04:22:16.068Z,100.0
2018-06-03T04:23:16.785Z,100.0
2018-06-03T04:24:17.517Z,100.0
2018-06-03T04:25:18.239Z,100.0
2018-06-03T04:26:18.976Z,100.0
2018-06-03T04:27:19.702Z,100.0
2018-06-03T04:28:20.689Z,100.0
2018-06-03T04:29:21.774Z,100.0
2018-06-03T04:30:22.507Z,100.0
2018-06-03T04:31:23.223Z,100.0
2018-06-03T04:32:23.969Z,100.0
2018-06-03T04:33:24.701Z,100.0
2018-06-03T04:34:25.431Z,100.0
2018-06-03T04:35:26.153Z,100.0
2018-06-03T04:36:27.132Z,100.0
2018-06-03T04:37:27.867Z,100.0
2018-06-03T04:38:28.596Z,100.0
2018-06-03T04:39:29.326Z,100.0
2018-06-03T04:40:30.055Z,100.0
2018-06-03T04:41:30.831Z,100.0
2018-06-03T04:42:31.570Z,100.0
2018-06-03T04:43:32.298Z,100.0
2018-06-03T04:44:33.275Z,100.0
2018-06-03T04:45:34.010Z,100.0
2018-06-03T04:46:34.984Z,100.0
2018-06-03T04:47:35.720Z,100.0
2018-06-03T04:48:36.696Z,100.0
2018-06-03T04:49:37.427Z,100.0
2018-06-03T04:50:38.163Z,100.0
2018-06-03T04:51:38.886Z,100.0
2018-06-03T04:52:39.615Z,100.0
2018-06-03T04:53:40.349Z,100.0
2018-06-03T04:54:41.086Z,100.0
2018-06-03T04:55:41.809Z,100.0
2018-06-03T04:56:42.589Z,100.0
2018-06-03T04:57:43.312Z,100.0
2018-06-03T04:58:44.044Z,100.0
2018-06-03T04:59:44.767Z,100.0
2018-06-03T05:00:45.499Z,100.0
2018-06-03T05:01:46.222Z,100.0
2018-06-03T05:02:46.964Z,100.0
2018-06-03T05:03:48.143Z,100.0
2018-06-03T05:04:48.883Z,100.0
2018-06-03T05:05:49.623Z,100.0
2018-06-03T05:06:50.357Z,100.0
2018-06-03T05:07:51.099Z,100.0
2018-06-03T05:08:51.876Z,100.0
2018-06-03T05:09:52.607Z,100.0
2018-06-03T05:10:53.338Z,100.0
2018-06-03T05:11:54.071Z,100.0
2018-06-03T05:12:54.793Z,100.0
2018-06-03T05:13:55.669Z,100.0
2018-06-03T05:14:56.403Z,100.0
2018-06-03T05:15:57.140Z,100.0
2018-06-03T05:16:57.871Z,100.0
2018-06-03T05:17:58.601Z,100.0
2018-06-03T05:18:59.385Z,100.0
2018-06-03T05:20:00.117Z,100.0
2018-06-03T05:21:00.859Z,100.0
2018-06-03T05:22:01.581Z,100.0
2018-06-03T05:23:02.302Z,100.0
2018-06-03T05:24:03.032Z,100.0
2018-06-03T05:25:03.767Z,100.0
2018-06-03T05:26:04.745Z,100.0
2018-06-03T05:27:05.484Z,100.0
2018-06-03T05:28:06.217Z,100.0
2018-06-03T05:29:07.191Z,100.0
2018-06-03T05:30:07.924Z,100.0
2018-06-03T05:31:08.658Z,100.0
2018-06-03T05:32:09.404Z,100.0
2018-06-03T05:33:10.484Z,100.0
2018-06-03T05:34:11.219Z,100.0
2018-06-03T05:35:11.958Z,100.0
2018-06-03T05:36:12.707Z,100.0
2018-06-03T05:37:13.438Z,100.0
2018-06-03T05:38:14.625Z,100.0
2018-06-03T05:39:15.606Z,100.0
2018-06-03T05:40:16.349Z,100.0
2018-06-03T05:41:17.079Z,100.0
2018-06-03T05:42:17.804Z,100.0
2018-06-03T05:43:18.549Z,100.0
2018-06-03T05:44:19.275Z,100.0
2018-06-03T05:45:20.007Z,100.0
2018-06-03T05:46:20.740Z,100.0
2018-06-03T05:47:21.474Z,100.0
2018-06-03T05:48:22.205Z,100.0
2018-06-03T05:49:22.951Z,100.0
2018-06-03T05:50:23.677Z,100.0
2018-06-03T05:51:24.420Z,100.0
2018-06-03T05:52:25.164Z,100.0
2018-06-03T05:53:25.881Z,100.0
2018-06-03T05:54:26.610Z,100.0
2018-06-03T05:55:27.347Z,100.0
2018-06-03T05:56:28.076Z,100.0
2018-06-03T05:57:28.814Z,100.0
2018-06-03T05:58:29.547Z,100.0
2018-06-03T05:59:30.289Z,100.0
2018-06-03T06:00:31.034Z,100.0
2018-06-03T06:01:31.767Z,100.0
2018-06-03T06:02:32.496Z,100.0
2018-06-03T06:03:33.240Z,100.0
2018-06-03T06:04:33.962Z,100.0
2018-06-03T06:05:34.709Z,100.0
2018-06-03T06:06:35.712Z,100.0
2018-06-03T06:07:36.455Z,100.0
2018-06-03T06:08:37.194Z,100.0
2018-06-03T06:09:37.929Z,100.0
2018-06-03T06:10:39.006Z,100.0
2018-06-03T06:11:39.741Z,100.0
2018-06-03T06:12:40.466Z,100.0
2018-06-03T06:13:41.199Z,100.0
2018-06-03T06:14:41.931Z,100.0
2018-06-03T06:15:42.675Z,100.0
2018-06-03T06:16:43.407Z,100.0
2018-06-03T06:17:44.138Z,100.0
2018-06-03T06:18:44.863Z,100.0
2018-06-03T06:19:45.741Z,100.0
2018-06-03T06:20:46.484Z,100.0
2018-06-03T06:21:47.210Z,100.0
2018-06-03T06:22:47.946Z,100.0
2018-06-03T06:23:48.675Z,100.0
2018-06-03T06:24:49.405Z,100.0
2018-06-03T06:25:50.146Z,100.0
2018-06-03T06:26:50.933Z,100.0
2018-06-03T06:27:51.679Z,100.0
2018-06-03T06:28:52.438Z,100.0
2018-06-03T06:29:53.165Z,100.0
2018-06-03T06:30:53.905Z,100.0
2018-06-03T06:31:54.636Z,100.0
2018-06-03T06:32:55.624Z,100.0
2018-06-03T06:33:56.371Z,100.0
2018-06-03T06:34:57.086Z,98.3
2018-06-03T06:35:57.823Z,97.0
2018-06-03T06:36:58.552Z,98.1
2018-06-03T06:37:59.288Z,98.6
2018-06-03T06:39:00.015Z,97.7
2018-06-03T06:40:00.751Z,98.0
2018-06-03T06:41:01.497Z,97.6
2018-06-03T06:42:02.571Z,97.8
2018-06-03T06:43:03.315Z,97.2
2018-06-03T06:44:04.050Z,96.6
2018-06-03T06:45:04.790Z,95.4
2018-06-03T06:46:05.525Z,94.6
2018-06-03T06:47:06.258Z,93.3
2018-06-03T06:48:07.008Z,93.1
2018-06-03T06:49:07.794Z,92.3
2018-06-03T06:50:08.539Z,92.2
2018-06-03T06:51:09.275Z,92.3
2018-06-03T06:52:10.008Z,92.0
2018-06-03T06:53:10.739Z,91.3
2018-06-03T06:54:11.577Z,89.6
2018-06-03T06:55:12.303Z,89.4
2018-06-03T06:56:13.042Z,89.5
2018-06-03T06:57:13.761Z,89.4
2018-06-03T06:58:14.741Z,89.5
2018-06-03T06:59:15.482Z,89.1
2018-06-03T07:00:16.527Z,88.8
2018-06-03T07:01:17.193Z,88.8
2018-06-03T07:02:18.172Z,88.6
2018-06-03T07:03:18.904Z,88.9
2018-06-03T07:04:19.738Z,88.3
2018-06-03T07:05:20.502Z,87.7
2018-06-03T07:06:21.216Z,87.9
2018-06-03T07:07:21.964Z,86.9
2018-06-03T07:08:22.690Z,87.8
2018-06-03T07:09:23.431Z,88.1
2018-06-03T07:10:24.567Z,88.5
2018-06-03T07:11:25.301Z,88.3
2018-06-03T07:12:26.036Z,88.5
2018-06-03T07:13:26.766Z,88.3
2018-06-03T07:14:27.547Z,88.8
2018-06-03T07:15:28.331Z,87.9
2018-06-03T07:16:29.079Z,87.6
2018-06-03T07:17:29.803Z,87.1
2018-06-03T07:18:30.549Z,87.9
2018-06-03T07:19:31.288Z,88.5
2018-06-03T07:20:32.016Z,89.6
2018-06-03T07:21:32.756Z,89.5
2018-06-03T07:22:33.509Z,90.7
2018-06-03T07:23:34.240Z,90.7
2018-06-03T07:24:34.994Z,90.7
2018-06-03T07:25:35.869Z,91.4
2018-06-03T07:26:36.597Z,90.9
2018-06-03T07:27:37.323Z,91.2
2018-06-03T07:28:38.070Z,91.0
2018-06-03T07:29:38.793Z,90.4
2018-06-03T07:30:39.666Z,90.5
2018-06-03T07:31:40.399Z,89.7
2018-06-03T07:32:41.126Z,88.9
2018-06-03T07:33:41.863Z,87.1
2018-06-03T07:34:42.608Z,85.7
2018-06-03T07:35:43.747Z,85.3
2018-06-03T07:36:44.489Z,82.7
2018-06-03T07:37:45.213Z,82.5
2018-06-03T07:38:46.204Z,82.5
2018-06-03T07:39:46.947Z,82.9
2018-06-03T07:40:47.685Z,83.8
2018-06-03T07:41:48.426Z,85.4
2018-06-03T07:42:49.153Z,85.1
2018-06-03T07:43:49.890Z,85.8
2018-06-03T07:44:50.622Z,86.4
2018-06-03T07:45:51.356Z,86.0
2018-06-03T07:46:52.092Z,86.5
2018-06-03T07:47:52.851Z,86.3
2018-06-03T07:48:53.669Z,86.6
2018-06-03T07:49:54.424Z,86.0
2018-06-03T07:50:55.154Z,86.0
2018-06-03T07:51:55.907Z,85.9
2018-06-03T07:52:56.624Z,86.3
2018-06-03T07:53:57.365Z,87.0
2018-06-03T07:54:58.085Z,87.5
2018-06-03T07:55:58.828Z,87.6
2018-06-03T07:56:59.557Z,87.6
2018-06-03T07:58:00.303Z,86.9
2018-06-03T07:59:01.094Z,85.6
2018-06-03T08:00:01.822Z,84.4
2018-06-03T08:01:02.551Z,84.1
2018-06-03T08:02:03.287Z,83.4
2018-06-03T08:03:04.023Z,83.0
2018-06-03T08:04:04.848Z,83.6
2018-06-03T08:05:05.592Z,83.2
2018-06-03T08:06:06.400Z,83.4
2018-06-03T08:07:07.044Z,84.6
2018-06-03T08:08:07.770Z,84.9
2018-06-03T08:09:08.549Z,85.3
2018-06-03T08:10:09.272Z,85.5
2018-06-03T08:11:10.002Z,85.6
2018-06-03T08:12:10.734Z,86.0
2018-06-03T08:13:11.466Z,84.5
2018-06-03T08:14:12.191Z,82.3
2018-06-03T08:15:13.173Z,79.0
2018-06-03T08:16:14.151Z,78.4
2018-06-03T08:17:14.904Z,76.7
2018-06-03T08:18:15.639Z,75.4
2018-06-03T08:19:16.620Z,74.3
2018-06-03T08:20:17.354Z,73.4
2018-06-03T08:21:18.088Z,72.7
2018-06-03T08:22:18.826Z,73.4
2018-06-03T08:23:19.554Z,73.9
2018-06-03T08:24:20.691Z,73.0
2018-06-03T08:25:21.436Z,70.8
2018-06-03T08:26:22.171Z,69.0
2018-06-03T08:27:22.911Z,68.1
2018-06-03T08:28:23.644Z,66.9
2018-06-03T08:29:24.389Z,69.1
2018-06-03T08:30:25.124Z,70.2
2018-06-03T08:31:25.912Z,71.8
2018-06-03T08:32:26.642Z,70.7
2018-06-03T08:33:27.388Z,70.6
2018-06-03T08:34:28.118Z,72.5
2018-06-03T08:35:28.857Z,74.2
2018-06-03T08:36:29.608Z,73.0
2018-06-03T08:37:30.349Z,72.4
2018-06-03T08:38:31.075Z,73.6
2018-06-03T08:39:31.809Z,73.0
2018-06-03T08:40:32.560Z,72.9
2018-06-03T08:41:33.598Z,71.6
2018-06-03T08:42:34.362Z,71.7
2018-06-03T08:43:35.130Z,72.0
2018-06-03T08:44:35.868Z,71.6
2018-06-03T08:45:36.611Z,72.9
2018-06-03T08:46:37.921Z,72.7
2018-06-03T08:47:38.822Z,73.0
2018-06-03T08:48:39.550Z,71.5
2018-06-03T08:49:40.275Z,72.5
2018-06-03T08:50:41.021Z,71.8
2018-06-03T08:51:41.744Z,72.4
2018-06-03T08:52:43.058Z,73.3
2018-06-03T08:53:43.776Z,73.3
2018-06-03T08:54:44.553Z,74.8
2018-06-03T08:55:45.301Z,74.6
2018-06-03T08:56:46.048Z,74.8
2018-06-03T08:57:46.803Z,75.2
2018-06-03T08:58:47.547Z,73.6
2018-06-03T08:59:48.284Z,71.9
2018-06-03T09:00:49.033Z,72.6
2018-06-03T09:01:49.774Z,73.2
2018-06-03T09:02:50.508Z,73.6
2018-06-03T09:03:51.240Z,74.8
2018-06-03T09:04:52.264Z,75.8
2018-06-03T09:05:53.276Z,76.1
2018-06-03T09:06:54.061Z,76.3
2018-06-03T09:07:55.111Z,76.7
2018-06-03T09:08:55.886Z,77.0
2018-06-03T09:09:56.627Z,78.1
2018-06-03T09:10:57.369Z,78.0
2018-06-03T09:11:58.111Z,78.4
2018-06-03T09:12:58.856Z,78.6
2018-06-03T09:13:59.864Z,78.6
2018-06-03T09:15:00.590Z,78.9
2018-06-03T09:16:01.318Z,78.9
2018-06-03T09:17:02.046Z,78.4
2018-06-03T09:18:02.781Z,77.5
2018-06-03T09:19:03.511Z,77.8
2018-06-03T09:20:04.249Z,77.8
2018-06-03T09:21:04.992Z,78.1
2018-06-03T09:22:05.731Z,79.1
2018-06-03T09:23:06.471Z,77.8
2018-06-03T09:24:07.210Z,78.4
2018-06-03T09:25:07.964Z,78.0
2018-06-03T09:26:08.680Z,78.1
2018-06-03T09:27:09.658Z,77.6
2018-06-03T09:28:10.415Z,78.3
2018-06-03T09:29:11.135Z,78.2
2018-06-03T09:30:11.865Z,77.7
2018-06-03T09:31:12.612Z,78.3
2018-06-03T09:32:13.350Z,79.1
2018-06-03T09:33:14.090Z,77.1
2018-06-03T09:34:15.481Z,77.4
2018-06-03T09:35:16.218Z,77.5
2018-06-03T09:36:17.205Z,77.7
2018-06-03T09:37:17.945Z,78.1
2018-06-03T09:38:18.685Z,77.3
2018-06-03T09:39:19.424Z,76.6
2018-06-03T09:40:20.155Z,77.1
2018-06-03T09:41:20.907Z,77.5
2018-06-03T09:42:21.632Z,77.7
2018-06-03T09:43:22.369Z,77.6
2018-06-03T09:44:23.139Z,77.7
2018-06-03T09:45:23.842Z,77.1
2018-06-03T09:46:24.573Z,77.7
2018-06-03T09:47:25.302Z,77.5
2018-06-03T09:48:26.039Z,76.9
2018-06-03T09:49:26.777Z,76.6
2018-06-03T09:50:27.506Z,76.6
2018-06-03T09:51:28.341Z,77.0
2018-06-03T09:52:29.085Z,76.8
2018-06-03T09:53:29.810Z,77.1
2018-06-03T09:54:30.552Z,76.6
2018-06-03T09:55:31.301Z,76.6
2018-06-03T09:56:32.088Z,76.5
2018-06-03T09:57:32.815Z,76.0
2018-06-03T09:58:33.572Z,76.6
2018-06-03T09:59:34.318Z,77.1
2018-06-03T10:00:35.043Z,77.7
2018-06-03T10:01:35.775Z,77.5
2018-06-03T10:02:36.757Z,77.9
2018-06-03T10:03:37.750Z,77.6
2018-06-03T10:04:38.732Z,77.9
2018-06-03T10:05:39.465Z,77.5
2018-06-03T10:06:40.216Z,77.3
2018-06-03T10:07:40.965Z,77.8
2018-06-03T10:08:41.698Z,77.4
2018-06-03T10:09:42.441Z,77.2
2018-06-03T10:10:43.174Z,76.5
2018-06-03T10:11:43.916Z,77.6
2018-06-03T10:12:44.660Z,77.2
2018-06-03T10:13:45.399Z,77.6
2018-06-03T10:14:46.131Z,79.0
2018-06-03T10:15:46.869Z,78.3
2018-06-03T10:16:47.602Z,78.4
2018-06-03T10:17:48.486Z,77.9
2018-06-03T10:18:49.212Z,78.5
2018-06-03T10:19:49.955Z,77.6
2018-06-03T10:20:50.685Z,77.0
2018-06-03T10:21:51.432Z,78.1
2018-06-03T10:22:52.163Z,79.3
2018-06-03T10:23:52.892Z,78.7
2018-06-03T10:24:53.638Z,79.1
2018-06-03T10:25:54.377Z,79.5
2018-06-03T10:26:55.125Z,79.8
2018-06-03T10:27:55.856Z,78.9
2018-06-03T10:28:56.834Z,79.3
2018-06-03T10:29:57.969Z,79.1
2018-06-03T10:30:58.697Z,78.8
2018-06-03T10:31:59.444Z,79.5
2018-06-03T10:33:00.181Z,79.2
2018-06-03T10:34:01.171Z,79.1
2018-06-03T10:35:01.961Z,79.0
2018-06-03T10:36:02.945Z,79.9
2018-06-03T10:37:03.943Z,79.5
2018-06-03T10:38:04.664Z,79.0
2018-06-03T10:39:05.401Z,77.3
2018-06-03T10:40:06.134Z,77.4
2018-06-03T10:41:06.865Z,76.9
2018-06-03T10:42:07.607Z,77.5
2018-06-03T10:43:08.348Z,77.9
2018-06-03T10:44:09.089Z,77.4
2018-06-03T10:45:09.820Z,76.4
2018-06-03T10:46:10.600Z,75.5
2018-06-03T10:47:11.344Z,74.8
2018-06-03T10:48:12.144Z,76.1
2018-06-03T10:49:12.983Z,75.8
2018-06-03T10:50:13.720Z,76.2
2018-06-03T10:51:14.805Z,76.3
2018-06-03T10:52:15.536Z,77.8
2018-06-03T10:53:16.266Z,76.9
2018-06-03T10:54:17.056Z,77.7
2018-06-03T10:55:17.743Z,77.4
2018-06-03T10:56:18.737Z,76.1
2018-06-03T10:57:19.460Z,76.9
2018-06-03T10:58:20.192Z,77.0
2018-06-03T10:59:20.941Z,77.3
2018-06-03T11:00:21.677Z,77.2
2018-06-03T11:01:22.444Z,75.8
2018-06-03T11:02:23.442Z,75.7
2018-06-03T11:03:24.175Z,75.0
2018-06-03T11:04:24.902Z,75.5
2018-06-03T11:05:25.636Z,76.2
2018-06-03T11:06:26.629Z,76.1
2018-06-03T11:07:27.359Z,74.6
2018-06-03T11:08:28.094Z,74.4
2018-06-03T11:09:28.980Z,74.1
2018-06-03T11:10:29.963Z,74.7
2018-06-03T11:11:30.704Z,74.7
2018-06-03T11:12:31.442Z,74.7
2018-06-03T11:13:32.177Z,75.1
2018-06-03T11:14:33.206Z,74.5
2018-06-03T11:15:34.224Z,74.7
2018-06-03T11:16:34.959Z,74.7
2018-06-03T11:17:35.697Z,74.2
2018-06-03T11:18:36.443Z,73.6
2018-06-03T11:19:37.230Z,73.7
2018-06-03T11:20:37.987Z,73.4
2018-06-03T11:21:38.717Z,74.3
2018-06-03T11:22:39.732Z,74.4
2018-06-03T11:23:40.720Z,73.5
2018-06-03T11:24:41.467Z,75.1
2018-06-03T11:25:42.193Z,74.7
2018-06-03T11:26:43.056Z,75.0
2018-06-03T11:27:43.781Z,75.7
2018-06-03T11:28:44.524Z,75.4
2018-06-03T11:29:45.248Z,75.8
2018-06-03T11:30:45.995Z,74.8
2018-06-03T11:31:46.729Z,75.2
2018-06-03T11:32:47.471Z,74.9
2018-06-03T11:33:48.206Z,75.4
2018-06-03T11:34:48.946Z,76.3
2018-06-03T11:35:49.683Z,76.3
2018-06-03T11:36:50.420Z,76.9
2018-06-03T11:37:51.149Z,77.1
2018-06-03T11:38:51.888Z,77.5
2018-06-03T11:39:52.623Z,77.7
2018-06-03T11:40:53.367Z,77.9
2018-06-03T11:41:54.103Z,77.6
2018-06-03T11:42:54.891Z,77.8
2018-06-03T11:43:55.633Z,78.0
2018-06-03T11:44:56.618Z,79.3
2018-06-03T11:45:57.374Z,79.9
2018-06-03T11:46:58.102Z,79.2
2018-06-03T11:47:58.845Z,79.5
2018-06-03T11:48:59.576Z,80.1
2018-06-03T11:50:00.322Z,79.2
2018-06-03T11:51:01.053Z,79.8
2018-06-03T11:52:01.794Z,80.3
2018-06-03T11:53:02.523Z,80.4
2018-06-03T11:54:03.277Z,79.6
2018-06-03T11:55:04.002Z,79.5
2018-06-03T11:56:04.745Z,79.7
2018-06-03T11:57:05.499Z,80.0
2018-06-03T11:58:06.238Z,81.1
2018-06-03T11:59:07.041Z,81.8
2018-06-03T12:00:07.725Z,81.6
2018-06-03T12:01:08.457Z,81.8
2018-06-03T12:02:09.189Z,81.3
2018-06-03T12:03:09.922Z,80.8
2018-06-03T12:04:10.659Z,80.0
2018-06-03T12:05:11.407Z,80.3
2018-06-03T12:06:12.126Z,80.9
2018-06-03T12:07:12.857Z,81.0
2018-06-03T12:08:13.610Z,80.6
2018-06-03T12:09:14.329Z,80.8
2018-06-03T12:10:15.064Z,80.9
2018-06-03T12:11:15.935Z,82.2
2018-06-03T12:12:16.664Z,82.7
2018-06-03T12:13:17.659Z,83.1
2018-06-03T12:14:18.394Z,83.4
2018-06-03T12:15:19.703Z,83.9
2018-06-03T12:16:21.311Z,83.2
2018-06-03T12:17:23.182Z,82.8
2018-06-03T12:18:24.307Z,83.2
2018-06-03T12:19:25.032Z,83.6
2018-06-03T12:20:25.757Z,83.6
2018-06-03T12:21:26.745Z,84.5
2018-06-03T12:22:27.488Z,84.4
2018-06-03T12:23:28.230Z,84.4
2018-06-03T12:24:29.224Z,84.5
2018-06-03T12:25:29.962Z,83.6
2018-06-03T12:26:30.695Z,84.3
2018-06-03T12:27:31.433Z,84.3
2018-06-03T12:28:32.198Z,84.5
2018-06-03T12:29:32.905Z,83.7
2018-06-03T12:30:33.642Z,83.6
2018-06-03T12:31:34.381Z,84.4
2018-06-03T12:32:35.217Z,84.5
2018-06-03T12:33:35.951Z,85.2
2018-06-03T12:34:36.686Z,84.1
2018-06-03T12:35:37.416Z,84.5
2018-06-03T12:36:38.162Z,84.5
2018-06-03T12:37:39.049Z,84.3
2018-06-03T12:38:39.777Z,83.3
2018-06-03T12:39:40.507Z,83.2
2018-06-03T12:40:41.243Z,82.4
2018-06-03T12:41:41.986Z,82.8
2018-06-03T12:42:42.721Z,84.4
2018-06-03T12:43:44.110Z,85.0
2018-06-03T12:44:45.305Z,84.8
2018-06-03T12:45:46.073Z,85.6
2018-06-03T12:46:46.814Z,85.4
2018-06-03T12:47:47.552Z,85.2
2018-06-03T12:48:48.337Z,85.4
2018-06-03T12:49:49.090Z,84.7
2018-06-03T12:50:49.820Z,85.2
2018-06-03T12:51:50.812Z,85.0
2018-06-03T12:52:52.133Z,84.8
2018-06-03T12:53:52.887Z,83.7
2018-06-03T12:54:53.877Z,83.5
2018-06-03T12:55:54.595Z,83.1
2018-06-03T12:56:55.935Z,83.0
2018-06-03T12:57:56.658Z,82.3
2018-06-03T12:58:57.409Z,80.8
2018-06-03T12:59:58.136Z,80.7
2018-06-03T13:00:58.872Z,79.6
2018-06-03T13:01:59.611Z,78.8
2018-06-03T13:03:00.354Z,78.3
2018-06-03T13:04:01.091Z,76.1
2018-06-03T13:05:01.840Z,76.6
2018-06-03T13:06:02.658Z,75.6
2018-06-03T13:07:03.480Z,75.3
2018-06-03T13:08:04.370Z,75.3
2018-06-03T13:09:05.093Z,75.4
2018-06-03T13:10:06.317Z,76.6
2018-06-03T13:11:07.161Z,76.2
2018-06-03T13:12:08.120Z,75.4
2018-06-03T13:13:09.044Z,74.5
2018-06-03T13:14:09.779Z,74.6
2018-06-03T13:15:10.597Z,73.3
2018-06-03T13:16:11.526Z,72.8